sensor_id;sensor_type;location;lat;lon;timestamp;temperature;humidity
45549;DHT22;31270;48.328;10.096;2023-05-10T00:02:16;13.60;99.90
45549;DHT22;31270;48.328;10.096;2023-05-10T00:04:42;13.50;99.90
45549;DHT22;31270;48.328;10.096;2023-05-10T00:07:08;13.50;99.90
45549;DHT22;31270;48.328;10.096;2023-05-10T00:09:33;13.40;99.90
45549;DHT22;31270;48.328;10.096;2023-05-10T00:11:59;13.40;99.90
45549;DHT22;31270;48.328;10.096;2023-05-10T00:14:25;13.50;99.90
45549;DHT22;31270;48.328;10.096;2023-05-10T00:16:51;13.40;99.90
45549;DHT22;31270;48.328;10.096;2023-05-10T00:19:17;13.40;99.90
45549;DHT22;31270;48.328;10.096;2023-05-10T00:21:43;13.30;99.90
45549;DHT22;31270;48.328;10.096;2023-05-10T00:24:09;13.30;99.90
45549;DHT22;31270;48.328;10.096;2023-05-10T00:26:35;13.30;99.90
45549;DHT22;31270;48.328;10.096;2023-05-10T00:29:00;13.30;99.90
45549;DHT22;31270;48.328;10.096;2023-05-10T00:31:26;13.40;99.90
45549;DHT22;31270;48.328;10.096;2023-05-10T00:33:52;13.20;99.90
45549;DHT22;31270;48.328;10.096;2023-05-10T00:36:18;13.30;99.90
45549;DHT22;31270;48.328;10.096;2023-05-10T00:38:44;13.20;99.90
45549;DHT22;31270;48.328;10.096;2023-05-10T00:41:11;13.20;99.90
45549;DHT22;31270;48.328;10.096;2023-05-10T00:43:37;13.20;99.90
45549;DHT22;31270;48.328;10.096;2023-05-10T00:46:04;13.20;99.90
45549;DHT22;31270;48.328;10.096;2023-05-10T00:48:31;13.20;99.90
45549;DHT22;31270;48.328;10.096;2023-05-10T00:50:57;13.20;99.90
45549;DHT22;31270;48.328;10.096;2023-05-10T00:53:24;13.20;99.90
45549;DHT22;31270;48.328;10.096;2023-05-10T00:55:50;13.10;99.90
45549;DHT22;31270;48.328;10.096;2023-05-10T00:58:16;13.00;99.90
45549;DHT22;31270;48.328;10.096;2023-05-10T01:00:42;13.10;99.90
45549;DHT22;31270;48.328;10.096;2023-05-10T01:03:10;13.10;99.90
45549;DHT22;31270;48.328;10.096;2023-05-10T01:05:37;13.00;99.90
45549;DHT22;31270;48.328;10.096;2023-05-10T01:08:03;13.00;99.90
45549;DHT22;31270;48.328;10.096;2023-05-10T01:10:30;13.00;99.90
45549;DHT22;31270;48.328;10.096;2023-05-10T01:12:56;13.10;99.90
45549;DHT22;31270;48.328;10.096;2023-05-10T01:15:24;13.10;99.90
45549;DHT22;31270;48.328;10.096;2023-05-10T01:17:51;13.00;99.90
45549;DHT22;31270;48.328;10.096;2023-05-10T01:20:17;13.00;99.90
45549;DHT22;31270;48.328;10.096;2023-05-10T01:31:13;12.90;99.90
45549;DHT22;31270;48.328;10.096;2023-05-10T01:34:01;12.90;99.90
45549;DHT22;31270;48.328;10.096;2023-05-10T01:36:35;12.80;99.90
45549;DHT22;31270;48.328;10.096;2023-05-10T01:39:24;12.80;99.90
45549;DHT22;31270;48.328;10.096;2023-05-10T01:44:53;12.80;99.90
45549;DHT22;31270;48.328;10.096;2023-05-10T01:47:30;12.70;99.90
45549;DHT22;31270;48.328;10.096;2023-05-10T01:50:01;12.70;99.90
45549;DHT22;31270;48.328;10.096;2023-05-10T01:52:33;12.70;99.90
45549;DHT22;31270;48.328;10.096;2023-05-10T01:55:05;12.70;99.90
45549;DHT22;31270;48.328;10.096;2023-05-10T01:57:34;12.80;99.90
45549;DHT22;31270;48.328;10.096;2023-05-10T02:00:02;12.80;99.90
45549;DHT22;31270;48.328;10.096;2023-05-10T02:02:37;12.70;99.90
45549;DHT22;31270;48.328;10.096;2023-05-10T02:05:05;12.80;99.90
45549;DHT22;31270;48.328;10.096;2023-05-10T02:07:34;12.70;99.90
45549;DHT22;31270;48.328;10.096;2023-05-10T02:10:04;12.70;99.90
45549;DHT22;31270;48.328;10.096;2023-05-10T02:12:32;12.70;99.90
45549;DHT22;31270;48.328;10.096;2023-05-10T02:15:02;12.70;99.90
45549;DHT22;31270;48.328;10.096;2023-05-10T02:17:32;12.70;99.90
45549;DHT22;31270;48.328;10.096;2023-05-10T02:19:59;12.70;99.90
45549;DHT22;31270;48.328;10.096;2023-05-10T02:22:27;12.70;99.90
45549;DHT22;31270;48.328;10.096;2023-05-10T02:24:58;12.70;99.90
45549;DHT22;31270;48.328;10.096;2023-05-10T02:27:27;12.70;99.90
45549;DHT22;31270;48.328;10.096;2023-05-10T02:29:53;12.70;99.90
45549;DHT22;31270;48.328;10.096;2023-05-10T02:32:21;12.80;99.90
45549;DHT22;31270;48.328;10.096;2023-05-10T02:34:49;12.60;99.90
45549;DHT22;31270;48.328;10.096;2023-05-10T02:37:19;12.60;99.90
45549;DHT22;31270;48.328;10.096;2023-05-10T02:39:47;12.60;99.90
45549;DHT22;31270;48.328;10.096;2023-05-10T02:42:22;12.60;99.90
45549;DHT22;31270;48.328;10.096;2023-05-10T02:44:50;12.60;99.90
45549;DHT22;31270;48.328;10.096;2023-05-10T02:47:18;12.50;99.90
45549;DHT22;31270;48.328;10.096;2023-05-10T02:49:45;12.50;99.90
45549;DHT22;31270;48.328;10.096;2023-05-10T02:52:16;12.50;99.90
45549;DHT22;31270;48.328;10.096;2023-05-10T02:54:45;12.50;99.90
45549;DHT22;31270;48.328;10.096;2023-05-10T02:57:16;12.50;99.90
45549;DHT22;31270;48.328;10.096;2023-05-10T02:59:44;12.50;99.90
45549;DHT22;31270;48.328;10.096;2023-05-10T03:02:12;12.40;99.90
45549;DHT22;31270;48.328;10.096;2023-05-10T03:04:38;12.50;99.90
45549;DHT22;31270;48.328;10.096;2023-05-10T03:07:04;12.40;99.90
45549;DHT22;31270;48.328;10.096;2023-05-10T03:09:31;12.40;99.90
45549;DHT22;31270;48.328;10.096;2023-05-10T03:12:04;12.40;99.90
45549;DHT22;31270;48.328;10.096;2023-05-10T03:19:58;12.40;99.90
45549;DHT22;31270;48.328;10.096;2023-05-10T03:22:31;12.40;99.90
45549;DHT22;31270;48.328;10.096;2023-05-10T03:24:57;12.30;99.90
45549;DHT22;31270;48.328;10.096;2023-05-10T03:27:25;12.40;99.90
45549;DHT22;31270;48.328;10.096;2023-05-10T03:29:52;12.30;99.90
45549;DHT22;31270;48.328;10.096;2023-05-10T03:32:18;12.40;99.90
45549;DHT22;31270;48.328;10.096;2023-05-10T03:34:43;12.30;99.90
45549;DHT22;31270;48.328;10.096;2023-05-10T03:37:09;12.30;99.90
45549;DHT22;31270;48.328;10.096;2023-05-10T03:39:36;12.30;99.90
45549;DHT22;31270;48.328;10.096;2023-05-10T03:42:01;12.30;99.90
45549;DHT22;31270;48.328;10.096;2023-05-10T03:44:27;12.30;99.90
45549;DHT22;31270;48.328;10.096;2023-05-10T03:46:53;12.20;99.90
45549;DHT22;31270;48.328;10.096;2023-05-10T03:49:19;12.20;99.90
45549;DHT22;31270;48.328;10.096;2023-05-10T03:51:45;12.30;99.90
45549;DHT22;31270;48.328;10.096;2023-05-10T03:54:11;12.30;99.90
45549;DHT22;31270;48.328;10.096;2023-05-10T03:56:37;12.20;99.90
45549;DHT22;31270;48.328;10.096;2023-05-10T03:59:03;12.30;99.90
45549;DHT22;31270;48.328;10.096;2023-05-10T04:01:36;12.20;99.90
45549;DHT22;31270;48.328;10.096;2023-05-10T04:04:02;12.10;99.90
45549;DHT22;31270;48.328;10.096;2023-05-10T04:06:27;12.10;99.90
45549;DHT22;31270;48.328;10.096;2023-05-10T04:08:53;12.10;99.90
45549;DHT22;31270;48.328;10.096;2023-05-10T04:11:19;12.10;99.90
45549;DHT22;31270;48.328;10.096;2023-05-10T04:13:47;12.10;99.90
45549;DHT22;31270;48.328;10.096;2023-05-10T04:16:13;12.10;99.90
45549;DHT22;31270;48.328;10.096;2023-05-10T04:18:39;12.10;99.90
45549;DHT22;31270;48.328;10.096;2023-05-10T04:21:14;12.10;99.90
45549;DHT22;31270;48.328;10.096;2023-05-10T04:23:40;12.10;99.90
45549;DHT22;31270;48.328;10.096;2023-05-10T04:26:06;12.00;99.90
45549;DHT22;31270;48.328;10.096;2023-05-10T04:28:32;12.00;99.90
45549;DHT22;31270;48.328;10.096;2023-05-10T04:31:02;12.00;99.90
45549;DHT22;31270;48.328;10.096;2023-05-10T04:33:28;12.00;99.90
45549;DHT22;31270;48.328;10.096;2023-05-10T04:35:54;12.00;99.90
45549;DHT22;31270;48.328;10.096;2023-05-10T04:38:21;12.00;99.90
45549;DHT22;31270;48.328;10.096;2023-05-10T04:40:47;12.00;99.90
45549;DHT22;31270;48.328;10.096;2023-05-10T04:43:13;12.00;99.90
45549;DHT22;31270;48.328;10.096;2023-05-10T04:45:39;12.20;99.90
45549;DHT22;31270;48.328;10.096;2023-05-10T04:48:07;12.00;99.90
45549;DHT22;31270;48.328;10.096;2023-05-10T04:50:33;12.00;99.90
45549;DHT22;31270;48.328;10.096;2023-05-10T04:52:59;12.00;99.90
45549;DHT22;31270;48.328;10.096;2023-05-10T04:55:25;12.00;99.90
45549;DHT22;31270;48.328;10.096;2023-05-10T04:57:52;12.00;99.90
45549;DHT22;31270;48.328;10.096;2023-05-10T05:00:18;12.20;99.90
45549;DHT22;31270;48.328;10.096;2023-05-10T05:02:45;12.00;99.90
45549;DHT22;31270;48.328;10.096;2023-05-10T05:05:11;12.00;99.90
45549;DHT22;31270;48.328;10.096;2023-05-10T05:07:38;12.00;99.90
45549;DHT22;31270;48.328;10.096;2023-05-10T05:10:05;12.30;99.90
45549;DHT22;31270;48.328;10.096;2023-05-10T05:12:31;12.10;99.90
45549;DHT22;31270;48.328;10.096;2023-05-10T05:15:00;12.10;99.90
45549;DHT22;31270;48.328;10.096;2023-05-10T05:17:26;12.30;99.90
45549;DHT22;31270;48.328;10.096;2023-05-10T05:19:52;12.10;99.90
45549;DHT22;31270;48.328;10.096;2023-05-10T05:22:18;12.10;99.90
45549;DHT22;31270;48.328;10.096;2023-05-10T05:24:44;12.20;99.90
45549;DHT22;31270;48.328;10.096;2023-05-10T05:27:10;12.10;99.90
45549;DHT22;31270;48.328;10.096;2023-05-10T05:29:36;12.20;99.90
45549;DHT22;31270;48.328;10.096;2023-05-10T05:32:01;12.20;99.90
45549;DHT22;31270;48.328;10.096;2023-05-10T05:34:27;12.20;99.90
45549;DHT22;31270;48.328;10.096;2023-05-10T05:36:53;12.30;99.90
45549;DHT22;31270;48.328;10.096;2023-05-10T05:39:20;12.30;99.90
45549;DHT22;31270;48.328;10.096;2023-05-10T05:41:46;12.30;99.90
45549;DHT22;31270;48.328;10.096;2023-05-10T05:44:11;12.30;99.90
45549;DHT22;31270;48.328;10.096;2023-05-10T05:46:37;12.30;99.90
45549;DHT22;31270;48.328;10.096;2023-05-10T05:49:03;12.40;99.90
45549;DHT22;31270;48.328;10.096;2023-05-10T05:51:32;12.40;99.90
45549;DHT22;31270;48.328;10.096;2023-05-10T05:53:57;12.40;99.90
45549;DHT22;31270;48.328;10.096;2023-05-10T05:56:23;12.50;99.90
45549;DHT22;31270;48.328;10.096;2023-05-10T05:58:52;12.50;99.90
45549;DHT22;31270;48.328;10.096;2023-05-10T06:01:18;12.50;99.90
45549;DHT22;31270;48.328;10.096;2023-05-10T06:03:44;12.50;99.90
45549;DHT22;31270;48.328;10.096;2023-05-10T06:06:10;12.50;99.90
45549;DHT22;31270;48.328;10.096;2023-05-10T06:08:35;12.70;99.90
45549;DHT22;31270;48.328;10.096;2023-05-10T06:11:01;12.60;99.90
45549;DHT22;31270;48.328;10.096;2023-05-10T06:13:27;12.60;99.90
45549;DHT22;31270;48.328;10.096;2023-05-10T06:15:58;12.70;99.90
45549;DHT22;31270;48.328;10.096;2023-05-10T06:18:24;12.80;99.90
45549;DHT22;31270;48.328;10.096;2023-05-10T06:20:51;12.80;99.90
45549;DHT22;31270;48.328;10.096;2023-05-10T06:23:17;12.90;99.90
45549;DHT22;31270;48.328;10.096;2023-05-10T06:25:42;13.00;99.90
45549;DHT22;31270;48.328;10.096;2023-05-10T06:28:09;13.00;99.90
45549;DHT22;31270;48.328;10.096;2023-05-10T06:30:36;13.20;99.90
45549;DHT22;31270;48.328;10.096;2023-05-10T06:33:02;13.30;99.90
45549;DHT22;31270;48.328;10.096;2023-05-10T06:35:28;13.20;99.90
45549;DHT22;31270;48.328;10.096;2023-05-10T06:37:54;13.30;99.90
45549;DHT22;31270;48.328;10.096;2023-05-10T06:40:20;13.40;99.90
45549;DHT22;31270;48.328;10.096;2023-05-10T06:42:47;13.30;99.90
45549;DHT22;31270;48.328;10.096;2023-05-10T06:45:14;13.40;99.90
45549;DHT22;31270;48.328;10.096;2023-05-10T06:47:40;13.40;99.90
45549;DHT22;31270;48.328;10.096;2023-05-10T06:50:10;13.40;99.90
45549;DHT22;31270;48.328;10.096;2023-05-10T06:52:37;13.50;99.90
45549;DHT22;31270;48.328;10.096;2023-05-10T06:55:04;13.60;99.90
45549;DHT22;31270;48.328;10.096;2023-05-10T06:57:30;13.70;99.90
45549;DHT22;31270;48.328;10.096;2023-05-10T06:59:56;13.80;99.90
45549;DHT22;31270;48.328;10.096;2023-05-10T07:02:22;13.90;99.90
45549;DHT22;31270;48.328;10.096;2023-05-10T07:04:48;13.70;99.90
45549;DHT22;31270;48.328;10.096;2023-05-10T07:07:14;13.90;99.90
45549;DHT22;31270;48.328;10.096;2023-05-10T07:09:41;13.90;99.90
45549;DHT22;31270;48.328;10.096;2023-05-10T07:12:07;13.90;99.90
45549;DHT22;31270;48.328;10.096;2023-05-10T07:14:33;13.90;99.90
45549;DHT22;31270;48.328;10.096;2023-05-10T07:16:59;13.90;99.90
45549;DHT22;31270;48.328;10.096;2023-05-10T07:19:24;14.10;99.90
45549;DHT22;31270;48.328;10.096;2023-05-10T07:21:50;14.10;99.90
45549;DHT22;31270;48.328;10.096;2023-05-10T07:24:16;14.10;99.90
45549;DHT22;31270;48.328;10.096;2023-05-10T07:26:41;14.10;99.90
45549;DHT22;31270;48.328;10.096;2023-05-10T07:29:07;14.30;99.90
45549;DHT22;31270;48.328;10.096;2023-05-10T07:31:33;14.40;99.90
45549;DHT22;31270;48.328;10.096;2023-05-10T07:33:59;14.50;99.90
45549;DHT22;31270;48.328;10.096;2023-05-10T07:36:25;14.60;99.90
45549;DHT22;31270;48.328;10.096;2023-05-10T07:38:51;14.80;99.90
45549;DHT22;31270;48.328;10.096;2023-05-10T07:41:17;14.90;99.90
45549;DHT22;31270;48.328;10.096;2023-05-10T07:43:43;14.90;99.90
45549;DHT22;31270;48.328;10.096;2023-05-10T07:46:08;15.10;99.90
45549;DHT22;31270;48.328;10.096;2023-05-10T07:48:36;15.10;99.90
45549;DHT22;31270;48.328;10.096;2023-05-10T07:51:02;15.30;99.90
45549;DHT22;31270;48.328;10.096;2023-05-10T07:53:28;15.20;99.90
45549;DHT22;31270;48.328;10.096;2023-05-10T07:55:57;15.30;99.90
45549;DHT22;31270;48.328;10.096;2023-05-10T07:58:24;15.10;99.90
45549;DHT22;31270;48.328;10.096;2023-05-10T08:00:50;15.20;99.90
45549;DHT22;31270;48.328;10.096;2023-05-10T08:03:17;15.20;99.90
45549;DHT22;31270;48.328;10.096;2023-05-10T08:05:43;15.20;99.90
45549;DHT22;31270;48.328;10.096;2023-05-10T08:08:08;15.30;99.90
45549;DHT22;31270;48.328;10.096;2023-05-10T08:10:34;15.20;99.90
45549;DHT22;31270;48.328;10.096;2023-05-10T08:13:00;15.20;99.90
45549;DHT22;31270;48.328;10.096;2023-05-10T08:15:26;15.10;99.90
45549;DHT22;31270;48.328;10.096;2023-05-10T08:17:52;15.20;99.90
45549;DHT22;31270;48.328;10.096;2023-05-10T08:20:18;15.20;99.90
45549;DHT22;31270;48.328;10.096;2023-05-10T08:22:47;15.20;99.90
45549;DHT22;31270;48.328;10.096;2023-05-10T08:25:13;15.40;99.90
45549;DHT22;31270;48.328;10.096;2023-05-10T08:27:39;15.50;99.90
45549;DHT22;31270;48.328;10.096;2023-05-10T08:30:06;15.60;99.90
45549;DHT22;31270;48.328;10.096;2023-05-10T08:32:32;15.60;99.90
45549;DHT22;31270;48.328;10.096;2023-05-10T08:34:58;15.60;99.90
45549;DHT22;31270;48.328;10.096;2023-05-10T08:37:24;15.60;99.90
45549;DHT22;31270;48.328;10.096;2023-05-10T08:39:50;15.70;99.90
45549;DHT22;31270;48.328;10.096;2023-05-10T08:42:19;15.70;99.90
45549;DHT22;31270;48.328;10.096;2023-05-10T08:44:48;15.70;99.90
45549;DHT22;31270;48.328;10.096;2023-05-10T08:47:16;15.70;99.90
45549;DHT22;31270;48.328;10.096;2023-05-10T08:49:44;15.80;99.90
45549;DHT22;31270;48.328;10.096;2023-05-10T08:52:15;15.90;99.90
45549;DHT22;31270;48.328;10.096;2023-05-10T08:54:42;16.00;99.90
45549;DHT22;31270;48.328;10.096;2023-05-10T08:57:09;16.10;99.90
45549;DHT22;31270;48.328;10.096;2023-05-10T08:59:34;16.20;99.90
45549;DHT22;31270;48.328;10.096;2023-05-10T09:02:02;16.30;99.90
45549;DHT22;31270;48.328;10.096;2023-05-10T09:04:29;16.40;99.90
45549;DHT22;31270;48.328;10.096;2023-05-10T09:06:57;16.60;99.90
45549;DHT22;31270;48.328;10.096;2023-05-10T09:09:24;16.60;99.90
45549;DHT22;31270;48.328;10.096;2023-05-10T09:11:51;16.80;99.90
45549;DHT22;31270;48.328;10.096;2023-05-10T09:14:18;16.90;99.90
45549;DHT22;31270;48.328;10.096;2023-05-10T09:16:44;16.90;99.90
45549;DHT22;31270;48.328;10.096;2023-05-10T09:19:10;17.00;99.90
45549;DHT22;31270;48.328;10.096;2023-05-10T09:21:37;16.90;99.90
45549;DHT22;31270;48.328;10.096;2023-05-10T09:24:06;16.80;99.90
45549;DHT22;31270;48.328;10.096;2023-05-10T09:26:34;16.70;99.90
45549;DHT22;31270;48.328;10.096;2023-05-10T09:29:01;16.80;99.90
45549;DHT22;31270;48.328;10.096;2023-05-10T09:31:45;16.50;99.90
45549;DHT22;31270;48.328;10.096;2023-05-10T09:34:19;16.70;99.90
45549;DHT22;31270;48.328;10.096;2023-05-10T09:36:55;16.70;99.90
45549;DHT22;31270;48.328;10.096;2023-05-10T09:39:30;16.80;99.90
45549;DHT22;31270;48.328;10.096;2023-05-10T09:41:56;16.90;99.90
45549;DHT22;31270;48.328;10.096;2023-05-10T09:44:23;16.80;99.90
45549;DHT22;31270;48.328;10.096;2023-05-10T09:46:49;17.00;99.90
45549;DHT22;31270;48.328;10.096;2023-05-10T09:49:16;17.00;99.90
45549;DHT22;31270;48.328;10.096;2023-05-10T09:51:42;17.20;99.90
45549;DHT22;31270;48.328;10.096;2023-05-10T09:54:15;17.00;99.90
45549;DHT22;31270;48.328;10.096;2023-05-10T09:56:42;17.10;99.90
45549;DHT22;31270;48.328;10.096;2023-05-10T09:59:11;17.40;99.90
45549;DHT22;31270;48.328;10.096;2023-05-10T10:01:38;17.50;99.90
45549;DHT22;31270;48.328;10.096;2023-05-10T10:04:09;17.60;99.90
45549;DHT22;31270;48.328;10.096;2023-05-10T10:06:39;17.60;99.90
45549;DHT22;31270;48.328;10.096;2023-05-10T10:09:06;17.70;99.90
45549;DHT22;31270;48.328;10.096;2023-05-10T10:11:35;17.90;99.90
45549;DHT22;31270;48.328;10.096;2023-05-10T10:14:01;17.80;99.90
45549;DHT22;31270;48.328;10.096;2023-05-10T10:16:29;18.00;99.90
45549;DHT22;31270;48.328;10.096;2023-05-10T10:18:56;17.90;99.90
45549;DHT22;31270;48.328;10.096;2023-05-10T10:21:23;17.60;99.90
45549;DHT22;31270;48.328;10.096;2023-05-10T10:23:49;17.60;99.90
45549;DHT22;31270;48.328;10.096;2023-05-10T10:26:17;17.60;99.90
45549;DHT22;31270;48.328;10.096;2023-05-10T10:31:46;17.80;99.90
45549;DHT22;31270;48.328;10.096;2023-05-10T10:34:26;18.00;99.90
45549;DHT22;31270;48.328;10.096;2023-05-10T10:36:55;17.80;99.90
45549;DHT22;31270;48.328;10.096;2023-05-10T10:39:22;17.80;99.90
45549;DHT22;31270;48.328;10.096;2023-05-10T10:41:55;17.90;99.90
45549;DHT22;31270;48.328;10.096;2023-05-10T10:49:49;17.80;99.90
45549;DHT22;31270;48.328;10.096;2023-05-10T10:52:35;17.80;99.90
45549;DHT22;31270;48.328;10.096;2023-05-10T10:55:11;17.90;99.90
45549;DHT22;31270;48.328;10.096;2023-05-10T11:03:15;17.70;99.90
45549;DHT22;31270;48.328;10.096;2023-05-10T11:05:51;17.60;99.90
45549;DHT22;31270;48.328;10.096;2023-05-10T11:08:31;17.60;99.90
45549;DHT22;31270;48.328;10.096;2023-05-10T11:15:57;17.70;99.90
45549;DHT22;31270;48.328;10.096;2023-05-10T11:18:26;17.80;99.90
45549;DHT22;31270;48.328;10.096;2023-05-10T11:23:23;17.80;99.90
45549;DHT22;31270;48.328;10.096;2023-05-10T11:25:49;17.80;99.90
45549;DHT22;31270;48.328;10.096;2023-05-10T11:28:18;17.60;99.90
45549;DHT22;31270;48.328;10.096;2023-05-10T11:30:45;17.50;99.90
45549;DHT22;31270;48.328;10.096;2023-05-10T11:33:18;17.50;99.90
45549;DHT22;31270;48.328;10.096;2023-05-10T11:35:45;17.60;99.90
45549;DHT22;31270;48.328;10.096;2023-05-10T11:38:12;17.40;99.90
45549;DHT22;31270;48.328;10.096;2023-05-10T11:40:40;17.40;99.90
45549;DHT22;31270;48.328;10.096;2023-05-10T11:43:06;17.20;99.90
45549;DHT22;31270;48.328;10.096;2023-05-10T11:45:33;17.50;99.90
45549;DHT22;31270;48.328;10.096;2023-05-10T11:48:00;17.20;99.90
45549;DHT22;31270;48.328;10.096;2023-05-10T11:50:27;17.50;99.90
45549;DHT22;31270;48.328;10.096;2023-05-10T11:52:55;17.30;99.90
45549;DHT22;31270;48.328;10.096;2023-05-10T11:55:20;17.50;99.90
45549;DHT22;31270;48.328;10.096;2023-05-10T11:57:47;17.40;99.90
45549;DHT22;31270;48.328;10.096;2023-05-10T12:00:13;17.50;99.90
45549;DHT22;31270;48.328;10.096;2023-05-10T12:02:39;17.50;99.90
45549;DHT22;31270;48.328;10.096;2023-05-10T12:05:06;17.30;99.90
45549;DHT22;31270;48.328;10.096;2023-05-10T12:07:32;17.30;99.90
45549;DHT22;31270;48.328;10.096;2023-05-10T12:10:09;17.30;99.90
45549;DHT22;31270;48.328;10.096;2023-05-10T12:12:40;17.10;99.90
45549;DHT22;31270;48.328;10.096;2023-05-10T12:15:27;17.10;99.90
45549;DHT22;31270;48.328;10.096;2023-05-10T12:17:53;17.10;99.90
45549;DHT22;31270;48.328;10.096;2023-05-10T12:20:20;16.80;99.90
45549;DHT22;31270;48.328;10.096;2023-05-10T12:22:54;16.60;99.90
45549;DHT22;31270;48.328;10.096;2023-05-10T12:25:23;16.50;99.90
45549;DHT22;31270;48.328;10.096;2023-05-10T12:27:54;16.40;99.90
45549;DHT22;31270;48.328;10.096;2023-05-10T12:30:31;16.50;99.90
45549;DHT22;31270;48.328;10.096;2023-05-10T12:33:12;16.50;99.90
45549;DHT22;31270;48.328;10.096;2023-05-10T12:35:48;16.20;99.90
45549;DHT22;31270;48.328;10.096;2023-05-10T12:38:34;16.00;99.90
45549;DHT22;31270;48.328;10.096;2023-05-10T12:41:02;15.80;99.90
45549;DHT22;31270;48.328;10.096;2023-05-10T12:43:28;15.60;99.90
45549;DHT22;31270;48.328;10.096;2023-05-10T12:45:54;15.60;99.90
45549;DHT22;31270;48.328;10.096;2023-05-10T12:48:20;15.50;99.90
45549;DHT22;31270;48.328;10.096;2023-05-10T12:50:46;15.30;99.90
45549;DHT22;31270;48.328;10.096;2023-05-10T12:53:16;15.30;99.90
45549;DHT22;31270;48.328;10.096;2023-05-10T12:55:42;15.20;99.90
45549;DHT22;31270;48.328;10.096;2023-05-10T12:58:08;15.20;99.90
45549;DHT22;31270;48.328;10.096;2023-05-10T13:00:33;15.30;99.90
45549;DHT22;31270;48.328;10.096;2023-05-10T13:02:59;15.30;99.90
45549;DHT22;31270;48.328;10.096;2023-05-10T13:05:25;15.40;99.90
45549;DHT22;31270;48.328;10.096;2023-05-10T13:07:50;15.50;99.90
45549;DHT22;31270;48.328;10.096;2023-05-10T13:10:16;15.40;99.90
45549;DHT22;31270;48.328;10.096;2023-05-10T13:12:42;15.50;99.90
45549;DHT22;31270;48.328;10.096;2023-05-10T13:15:08;15.50;99.90
45549;DHT22;31270;48.328;10.096;2023-05-10T13:17:34;15.60;99.90
45549;DHT22;31270;48.328;10.096;2023-05-10T13:20:00;15.70;99.90
45549;DHT22;31270;48.328;10.096;2023-05-10T13:22:26;15.60;99.90
45549;DHT22;31270;48.328;10.096;2023-05-10T13:24:52;15.50;99.90
45549;DHT22;31270;48.328;10.096;2023-05-10T13:27:17;15.30;99.90
45549;DHT22;31270;48.328;10.096;2023-05-10T13:29:43;15.40;99.90
45549;DHT22;31270;48.328;10.096;2023-05-10T13:32:09;15.30;99.90
45549;DHT22;31270;48.328;10.096;2023-05-10T13:34:35;15.20;99.90
45549;DHT22;31270;48.328;10.096;2023-05-10T13:37:01;15.40;99.90
45549;DHT22;31270;48.328;10.096;2023-05-10T13:39:27;15.40;99.90
45549;DHT22;31270;48.328;10.096;2023-05-10T13:41:52;15.40;99.90
45549;DHT22;31270;48.328;10.096;2023-05-10T13:44:20;15.50;99.90
45549;DHT22;31270;48.328;10.096;2023-05-10T13:46:45;15.50;99.90
45549;DHT22;31270;48.328;10.096;2023-05-10T13:49:11;15.00;99.90
45549;DHT22;31270;48.328;10.096;2023-05-10T13:51:37;14.50;99.90
45549;DHT22;31270;48.328;10.096;2023-05-10T13:54:03;14.10;99.90
45549;DHT22;31270;48.328;10.096;2023-05-10T13:56:28;13.80;99.90
45549;DHT22;31270;48.328;10.096;2023-05-10T13:58:55;13.50;99.90
45549;DHT22;31270;48.328;10.096;2023-05-10T14:01:21;13.30;99.90
45549;DHT22;31270;48.328;10.096;2023-05-10T14:03:46;13.40;99.90
45549;DHT22;31270;48.328;10.096;2023-05-10T14:06:12;13.50;99.90
45549;DHT22;31270;48.328;10.096;2023-05-10T14:08:37;13.60;99.90
45549;DHT22;31270;48.328;10.096;2023-05-10T14:11:03;13.80;99.90
45549;DHT22;31270;48.328;10.096;2023-05-10T14:13:29;13.70;99.90
45549;DHT22;31270;48.328;10.096;2023-05-10T14:15:55;13.70;99.90
45549;DHT22;31270;48.328;10.096;2023-05-10T14:18:21;13.80;99.90
45549;DHT22;31270;48.328;10.096;2023-05-10T14:20:47;13.90;99.90
45549;DHT22;31270;48.328;10.096;2023-05-10T14:23:12;13.90;99.90
45549;DHT22;31270;48.328;10.096;2023-05-10T14:25:40;13.90;99.90
45549;DHT22;31270;48.328;10.096;2023-05-10T14:28:06;14.00;99.90
45549;DHT22;31270;48.328;10.096;2023-05-10T14:30:32;13.90;99.90
45549;DHT22;31270;48.328;10.096;2023-05-10T14:33:00;14.00;99.90
45549;DHT22;31270;48.328;10.096;2023-05-10T14:35:27;14.20;99.90
45549;DHT22;31270;48.328;10.096;2023-05-10T14:37:53;14.00;99.90
45549;DHT22;31270;48.328;10.096;2023-05-10T14:40:18;14.10;99.90
45549;DHT22;31270;48.328;10.096;2023-05-10T14:42:44;14.10;99.90
45549;DHT22;31270;48.328;10.096;2023-05-10T14:45:10;14.10;99.90
45549;DHT22;31270;48.328;10.096;2023-05-10T14:47:36;14.20;99.90
45549;DHT22;31270;48.328;10.096;2023-05-10T14:50:02;14.30;99.90
45549;DHT22;31270;48.328;10.096;2023-05-10T14:52:28;14.30;99.90
45549;DHT22;31270;48.328;10.096;2023-05-10T14:54:54;14.30;99.90
45549;DHT22;31270;48.328;10.096;2023-05-10T14:57:20;14.40;99.90
45549;DHT22;31270;48.328;10.096;2023-05-10T14:59:45;14.40;99.90
45549;DHT22;31270;48.328;10.096;2023-05-10T15:02:11;14.40;99.90
45549;DHT22;31270;48.328;10.096;2023-05-10T15:04:36;14.20;99.90
45549;DHT22;31270;48.328;10.096;2023-05-10T15:07:02;14.30;99.90
45549;DHT22;31270;48.328;10.096;2023-05-10T15:09:29;14.30;99.90
45549;DHT22;31270;48.328;10.096;2023-05-10T15:11:55;14.20;99.90
45549;DHT22;31270;48.328;10.096;2023-05-10T15:14:21;14.30;99.90
45549;DHT22;31270;48.328;10.096;2023-05-10T15:16:46;14.30;99.90
45549;DHT22;31270;48.328;10.096;2023-05-10T15:19:12;14.30;99.90
45549;DHT22;31270;48.328;10.096;2023-05-10T15:21:38;14.30;99.90
45549;DHT22;31270;48.328;10.096;2023-05-10T15:24:08;14.20;99.90
45549;DHT22;31270;48.328;10.096;2023-05-10T15:26:34;14.30;99.90
45549;DHT22;31270;48.328;10.096;2023-05-10T15:28:59;14.20;99.90
45549;DHT22;31270;48.328;10.096;2023-05-10T15:31:25;14.30;99.90
45549;DHT22;31270;48.328;10.096;2023-05-10T15:33:56;14.30;99.90
45549;DHT22;31270;48.328;10.096;2023-05-10T15:36:23;14.20;99.90
45549;DHT22;31270;48.328;10.096;2023-05-10T15:38:48;14.20;99.90
45549;DHT22;31270;48.328;10.096;2023-05-10T15:41:14;14.20;99.90
45549;DHT22;31270;48.328;10.096;2023-05-10T15:43:40;14.20;99.90
45549;DHT22;31270;48.328;10.096;2023-05-10T15:46:05;14.30;99.90
45549;DHT22;31270;48.328;10.096;2023-05-10T15:48:31;14.20;99.90
45549;DHT22;31270;48.328;10.096;2023-05-10T15:50:57;14.10;99.90
45549;DHT22;31270;48.328;10.096;2023-05-10T15:53:23;14.00;99.90
45549;DHT22;31270;48.328;10.096;2023-05-10T15:55:49;14.00;99.90